sensor_id;sensor_type;location;lat;lon;timestamp;P1;durP1;ratioP1;P2;durP2;ratioP2
16254;SDS011;8235;52.198;9.904;2024-01-30T00:01:50;11.93;;;8.83;;
16254;SDS011;8235;52.198;9.904;2024-01-30T00:04:17;12.07;;;9.30;;
16254;SDS011;8235;52.198;9.904;2024-01-30T00:06:45;11.03;;;8.90;;
16254;SDS011;8235;52.198;9.904;2024-01-30T00:09:11;10.37;;;8.93;;
16254;SDS011;8235;52.198;9.904;2024-01-30T00:11:38;10.97;;;8.23;;
16254;SDS011;8235;52.198;9.904;2024-01-30T00:14:05;11.03;;;8.30;;
16254;SDS011;8235;52.198;9.904;2024-01-30T00:16:31;10.43;;;8.17;;
16254;SDS011;8235;52.198;9.904;2024-01-30T00:18:59;10.63;;;8.40;;
16254;SDS011;8235;52.198;9.904;2024-01-30T00:21:27;12.30;;;8.50;;
16254;SDS011;8235;52.198;9.904;2024-01-30T00:23:55;11.67;;;8.90;;
16254;SDS011;8235;52.198;9.904;2024-01-30T00:26:21;11.13;;;8.93;;
16254;SDS011;8235;52.198;9.904;2024-01-30T00:28:47;10.10;;;8.50;;
16254;SDS011;8235;52.198;9.904;2024-01-30T00:31:14;11.20;;;8.57;;
16254;SDS011;8235;52.198;9.904;2024-01-30T00:33:40;11.67;;;9.40;;
16254;SDS011;8235;52.198;9.904;2024-01-30T00:36:08;12.60;;;8.73;;
16254;SDS011;8235;52.198;9.904;2024-01-30T00:38:35;12.17;;;8.97;;
16254;SDS011;8235;52.198;9.904;2024-01-30T00:41:03;10.60;;;8.27;;
16254;SDS011;8235;52.198;9.904;2024-01-30T00:43:30;10.57;;;9.00;;
16254;SDS011;8235;52.198;9.904;2024-01-30T00:45:57;12.23;;;8.33;;
16254;SDS011;8235;52.198;9.904;2024-01-30T00:48:24;13.60;;;8.93;;
16254;SDS011;8235;52.198;9.904;2024-01-30T00:50:50;10.07;;;8.23;;
16254;SDS011;8235;52.198;9.904;2024-01-30T00:53:17;11.57;;;8.27;;
16254;SDS011;8235;52.198;9.904;2024-01-30T00:55:43;11.70;;;8.33;;
16254;SDS011;8235;52.198;9.904;2024-01-30T00:58:11;9.73;;;7.63;;
16254;SDS011;8235;52.198;9.904;2024-01-30T01:00:38;11.43;;;8.60;;
16254;SDS011;8235;52.198;9.904;2024-01-30T01:03:04;12.77;;;9.73;;
16254;SDS011;8235;52.198;9.904;2024-01-30T01:05:31;13.93;;;9.33;;
16254;SDS011;8235;52.198;9.904;2024-01-30T01:07:57;11.47;;;8.53;;
16254;SDS011;8235;52.198;9.904;2024-01-30T01:10:24;11.80;;;9.70;;
16254;SDS011;8235;52.198;9.904;2024-01-30T01:12:50;11.50;;;8.80;;
16254;SDS011;8235;52.198;9.904;2024-01-30T01:15:18;12.50;;;8.97;;
16254;SDS011;8235;52.198;9.904;2024-01-30T01:17:45;11.37;;;9.20;;
16254;SDS011;8235;52.198;9.904;2024-01-30T01:20:11;13.47;;;8.93;;
16254;SDS011;8235;52.198;9.904;2024-01-30T01:22:38;12.70;;;9.53;;
16254;SDS011;8235;52.198;9.904;2024-01-30T01:25:05;13.10;;;8.97;;
16254;SDS011;8235;52.198;9.904;2024-01-30T01:27:33;11.20;;;9.07;;
16254;SDS011;8235;52.198;9.904;2024-01-30T01:30:05;11.53;;;8.40;;
16254;SDS011;8235;52.198;9.904;2024-01-30T01:32:35;15.30;;;8.57;;
16254;SDS011;8235;52.198;9.904;2024-01-30T01:35:03;13.10;;;8.97;;
16254;SDS011;8235;52.198;9.904;2024-01-30T01:37:31;12.63;;;9.60;;
16254;SDS011;8235;52.198;9.904;2024-01-30T01:39:57;13.67;;;9.67;;
16254;SDS011;8235;52.198;9.904;2024-01-30T01:42:24;10.67;;;8.60;;
16254;SDS011;8235;52.198;9.904;2024-01-30T01:44:50;10.13;;;8.40;;
16254;SDS011;8235;52.198;9.904;2024-01-30T01:47:17;10.20;;;8.47;;
16254;SDS011;8235;52.198;9.904;2024-01-30T01:49:45;16.03;;;8.83;;
16254;SDS011;8235;52.198;9.904;2024-01-30T01:52:11;14.07;;;8.87;;
16254;SDS011;8235;52.198;9.904;2024-01-30T01:54:38;12.70;;;8.53;;
16254;SDS011;8235;52.198;9.904;2024-01-30T01:57:04;11.50;;;8.83;;
16254;SDS011;8235;52.198;9.904;2024-01-30T01:59:31;12.33;;;8.50;;
16254;SDS011;8235;52.198;9.904;2024-01-30T02:01:58;14.77;;;9.33;;
16254;SDS011;8235;52.198;9.904;2024-01-30T02:04:25;12.33;;;9.63;;
16254;SDS011;8235;52.198;9.904;2024-01-30T02:06:53;13.83;;;9.60;;
16254;SDS011;8235;52.198;9.904;2024-01-30T02:09:20;12.10;;;9.10;;
16254;SDS011;8235;52.198;9.904;2024-01-30T02:11:46;14.37;;;10.30;;
16254;SDS011;8235;52.198;9.904;2024-01-30T02:14:13;14.50;;;9.50;;
16254;SDS011;8235;52.198;9.904;2024-01-30T02:16:39;13.13;;;10.53;;
16254;SDS011;8235;52.198;9.904;2024-01-30T02:19:06;13.97;;;10.10;;
16254;SDS011;8235;52.198;9.904;2024-01-30T02:21:34;14.07;;;9.70;;
16254;SDS011;8235;52.198;9.904;2024-01-30T02:24:00;13.97;;;9.40;;
16254;SDS011;8235;52.198;9.904;2024-01-30T02:26:28;14.43;;;10.27;;
16254;SDS011;8235;52.198;9.904;2024-01-30T02:28:55;11.63;;;9.03;;
16254;SDS011;8235;52.198;9.904;2024-01-30T02:31:21;10.87;;;8.97;;
16254;SDS011;8235;52.198;9.904;2024-01-30T02:33:49;14.07;;;10.33;;
16254;SDS011;8235;52.198;9.904;2024-01-30T02:36:15;14.33;;;10.13;;
16254;SDS011;8235;52.198;9.904;2024-01-30T02:38:43;12.57;;;9.20;;
16254;SDS011;8235;52.198;9.904;2024-01-30T02:41:11;11.80;;;9.37;;
16254;SDS011;8235;52.198;9.904;2024-01-30T02:43:38;13.20;;;9.30;;
16254;SDS011;8235;52.198;9.904;2024-01-30T02:46:04;12.43;;;9.17;;
16254;SDS011;8235;52.198;9.904;2024-01-30T02:48:30;13.63;;;9.97;;
16254;SDS011;8235;52.198;9.904;2024-01-30T02:50:57;12.53;;;8.77;;
16254;SDS011;8235;52.198;9.904;2024-01-30T02:53:24;12.40;;;8.73;;
16254;SDS011;8235;52.198;9.904;2024-01-30T02:55:51;10.30;;;8.30;;
16254;SDS011;8235;52.198;9.904;2024-01-30T02:58:18;13.37;;;9.30;;
16254;SDS011;8235;52.198;9.904;2024-01-30T03:00:44;11.97;;;8.77;;
16254;SDS011;8235;52.198;9.904;2024-01-30T03:03:11;11.03;;;8.40;;
16254;SDS011;8235;52.198;9.904;2024-01-30T03:05:37;11.53;;;8.60;;
16254;SDS011;8235;52.198;9.904;2024-01-30T03:08:04;11.40;;;8.67;;
16254;SDS011;8235;52.198;9.904;2024-01-30T03:10:31;11.47;;;8.47;;
16254;SDS011;8235;52.198;9.904;2024-01-30T03:12:59;10.33;;;7.43;;
16254;SDS011;8235;52.198;9.904;2024-01-30T03:15:25;12.83;;;8.40;;
16254;SDS011;8235;52.198;9.904;2024-01-30T03:17:52;10.20;;;8.00;;
16254;SDS011;8235;52.198;9.904;2024-01-30T03:20:19;11.50;;;7.93;;
16254;SDS011;8235;52.198;9.904;2024-01-30T03:22:45;10.23;;;7.80;;
16254;SDS011;8235;52.198;9.904;2024-01-30T03:25:12;10.23;;;7.53;;
16254;SDS011;8235;52.198;9.904;2024-01-30T03:27:39;10.27;;;8.30;;
16254;SDS011;8235;52.198;9.904;2024-01-30T03:30:07;10.97;;;7.90;;
16254;SDS011;8235;52.198;9.904;2024-01-30T03:32:34;12.60;;;7.53;;
16254;SDS011;8235;52.198;9.904;2024-01-30T03:35:01;12.13;;;7.87;;
16254;SDS011;8235;52.198;9.904;2024-01-30T03:37:27;9.37;;;7.70;;
16254;SDS011;8235;52.198;9.904;2024-01-30T03:39:54;11.43;;;7.57;;
16254;SDS011;8235;52.198;9.904;2024-01-30T03:42:20;11.47;;;8.37;;
16254;SDS011;8235;52.198;9.904;2024-01-30T03:44:47;9.37;;;7.97;;
16254;SDS011;8235;52.198;9.904;2024-01-30T03:47:18;9.30;;;8.30;;
16254;SDS011;8235;52.198;9.904;2024-01-30T03:49:44;11.90;;;7.77;;
16254;SDS011;8235;52.198;9.904;2024-01-30T03:52:11;11.60;;;8.17;;
16254;SDS011;8235;52.198;9.904;2024-01-30T03:54:38;9.60;;;7.60;;
16254;SDS011;8235;52.198;9.904;2024-01-30T03:57:04;9.73;;;7.47;;
16254;SDS011;8235;52.198;9.904;2024-01-30T03:59:31;9.93;;;8.30;;
16254;SDS011;8235;52.198;9.904;2024-01-30T04:01:57;11.80;;;8.17;;
16254;SDS011;8235;52.198;9.904;2024-01-30T04:04:25;11.53;;;7.90;;
16254;SDS011;8235;52.198;9.904;2024-01-30T04:06:51;10.80;;;8.73;;
16254;SDS011;8235;52.198;9.904;2024-01-30T04:09:18;11.63;;;8.60;;
16254;SDS011;8235;52.198;9.904;2024-01-30T04:11:44;10.17;;;8.03;;
16254;SDS011;8235;52.198;9.904;2024-01-30T04:14:11;13.67;;;9.10;;
16254;SDS011;8235;52.198;9.904;2024-01-30T04:16:37;10.37;;;7.60;;
16254;SDS011;8235;52.198;9.904;2024-01-30T04:19:04;9.77;;;7.90;;
16254;SDS011;8235;52.198;9.904;2024-01-30T04:21:32;10.30;;;8.10;;
16254;SDS011;8235;52.198;9.904;2024-01-30T04:23:58;10.27;;;7.87;;
16254;SDS011;8235;52.198;9.904;2024-01-30T04:26:24;9.63;;;7.53;;
16254;SDS011;8235;52.198;9.904;2024-01-30T04:28:51;11.03;;;8.60;;
16254;SDS011;8235;52.198;9.904;2024-01-30T04:31:17;9.03;;;7.93;;
16254;SDS011;8235;52.198;9.904;2024-01-30T04:33:44;11.60;;;9.13;;
16254;SDS011;8235;52.198;9.904;2024-01-30T04:36:10;13.83;;;8.50;;
16254;SDS011;8235;52.198;9.904;2024-01-30T04:38:38;10.80;;;8.63;;
16254;SDS011;8235;52.198;9.904;2024-01-30T04:41:05;14.03;;;8.27;;
16254;SDS011;8235;52.198;9.904;2024-01-30T04:43:31;14.30;;;9.00;;
16254;SDS011;8235;52.198;9.904;2024-01-30T04:45:58;10.57;;;8.07;;
16254;SDS011;8235;52.198;9.904;2024-01-30T04:48:24;13.30;;;8.60;;
16254;SDS011;8235;52.198;9.904;2024-01-30T04:50:56;11.73;;;8.00;;
16254;SDS011;8235;52.198;9.904;2024-01-30T04:53:23;10.23;;;7.90;;
16254;SDS011;8235;52.198;9.904;2024-01-30T04:55:50;13.17;;;8.60;;
16254;SDS011;8235;52.198;9.904;2024-01-30T04:58:17;12.43;;;8.20;;
16254;SDS011;8235;52.198;9.904;2024-01-30T05:00:43;10.60;;;8.87;;
16254;SDS011;8235;52.198;9.904;2024-01-30T05:03:11;14.30;;;10.00;;
16254;SDS011;8235;52.198;9.904;2024-01-30T05:05:37;13.87;;;9.13;;
16254;SDS011;8235;52.198;9.904;2024-01-30T05:08:04;14.70;;;9.23;;
16254;SDS011;8235;52.198;9.904;2024-01-30T05:10:30;12.00;;;8.77;;
16254;SDS011;8235;52.198;9.904;2024-01-30T05:12:58;11.37;;;9.13;;
16254;SDS011;8235;52.198;9.904;2024-01-30T05:15:25;12.10;;;9.23;;
16254;SDS011;8235;52.198;9.904;2024-01-30T05:17:51;13.80;;;9.37;;
16254;SDS011;8235;52.198;9.904;2024-01-30T05:20:18;11.40;;;9.60;;
16254;SDS011;8235;52.198;9.904;2024-01-30T05:22:45;12.33;;;8.80;;
16254;SDS011;8235;52.198;9.904;2024-01-30T05:25:12;12.53;;;8.67;;
16254;SDS011;8235;52.198;9.904;2024-01-30T05:27:39;12.77;;;9.07;;
16254;SDS011;8235;52.198;9.904;2024-01-30T05:30:07;13.87;;;10.03;;
16254;SDS011;8235;52.198;9.904;2024-01-30T05:32:34;13.43;;;10.00;;
16254;SDS011;8235;52.198;9.904;2024-01-30T05:35:01;12.40;;;8.77;;
16254;SDS011;8235;52.198;9.904;2024-01-30T05:37:28;11.80;;;9.03;;
16254;SDS011;8235;52.198;9.904;2024-01-30T05:39:54;13.13;;;9.00;;
16254;SDS011;8235;52.198;9.904;2024-01-30T05:42:21;13.50;;;9.43;;
16254;SDS011;8235;52.198;9.904;2024-01-30T05:44:47;12.67;;;9.27;;
16254;SDS011;8235;52.198;9.904;2024-01-30T05:47:15;12.40;;;9.33;;
16254;SDS011;8235;52.198;9.904;2024-01-30T05:49:41;13.67;;;9.60;;
16254;SDS011;8235;52.198;9.904;2024-01-30T05:52:08;14.00;;;10.23;;
16254;SDS011;8235;52.198;9.904;2024-01-30T05:54:34;13.27;;;9.93;;
16254;SDS011;8235;52.198;9.904;2024-01-30T05:57:01;14.23;;;9.97;;
16254;SDS011;8235;52.198;9.904;2024-01-30T05:59:28;15.07;;;10.23;;
16254;SDS011;8235;52.198;9.904;2024-01-30T06:01:54;14.20;;;10.33;;
16254;SDS011;8235;52.198;9.904;2024-01-30T06:04:22;11.67;;;9.03;;
16254;SDS011;8235;52.198;9.904;2024-01-30T06:06:49;13.73;;;9.50;;
16254;SDS011;8235;52.198;9.904;2024-01-30T06:09:15;15.30;;;9.07;;
16254;SDS011;8235;52.198;9.904;2024-01-30T06:11:42;12.47;;;9.40;;
16254;SDS011;8235;52.198;9.904;2024-01-30T06:14:08;12.80;;;9.27;;
16254;SDS011;8235;52.198;9.904;2024-01-30T06:16:35;13.27;;;9.93;;
16254;SDS011;8235;52.198;9.904;2024-01-30T06:19:01;13.73;;;9.53;;
16254;SDS011;8235;52.198;9.904;2024-01-30T06:21:29;13.73;;;9.63;;
16254;SDS011;8235;52.198;9.904;2024-01-30T06:23:55;11.67;;;9.63;;
16254;SDS011;8235;52.198;9.904;2024-01-30T06:26:22;16.57;;;10.40;;
16254;SDS011;8235;52.198;9.904;2024-01-30T06:28:48;13.67;;;9.83;;
16254;SDS011;8235;52.198;9.904;2024-01-30T06:31:15;16.70;;;9.93;;
16254;SDS011;8235;52.198;9.904;2024-01-30T06:33:41;14.90;;;9.90;;
16254;SDS011;8235;52.198;9.904;2024-01-30T06:36:08;14.57;;;9.77;;
16254;SDS011;8235;52.198;9.904;2024-01-30T06:38:35;12.43;;;10.03;;
16254;SDS011;8235;52.198;9.904;2024-01-30T06:41:03;11.60;;;8.90;;
16254;SDS011;8235;52.198;9.904;2024-01-30T06:43:30;11.57;;;8.57;;
16254;SDS011;8235;52.198;9.904;2024-01-30T06:45:56;12.90;;;9.30;;
16254;SDS011;8235;52.198;9.904;2024-01-30T06:48:23;13.13;;;8.97;;
16254;SDS011;8235;52.198;9.904;2024-01-30T06:50:49;13.03;;;9.03;;
16254;SDS011;8235;52.198;9.904;2024-01-30T06:53:16;10.73;;;8.50;;
16254;SDS011;8235;52.198;9.904;2024-01-30T06:55:44;12.50;;;8.50;;
16254;SDS011;8235;52.198;9.904;2024-01-30T06:58:10;11.33;;;8.37;;
16254;SDS011;8235;52.198;9.904;2024-01-30T07:00:37;10.73;;;8.33;;
16254;SDS011;8235;52.198;9.904;2024-01-30T07:03:04;10.67;;;8.27;;
16254;SDS011;8235;52.198;9.904;2024-01-30T07:05:31;13.80;;;8.70;;
16254;SDS011;8235;52.198;9.904;2024-01-30T07:07:58;14.00;;;9.47;;
16254;SDS011;8235;52.198;9.904;2024-01-30T07:10:24;11.13;;;8.93;;
16254;SDS011;8235;52.198;9.904;2024-01-30T07:12:52;13.17;;;9.17;;
16254;SDS011;8235;52.198;9.904;2024-01-30T07:15:19;12.07;;;9.57;;
16254;SDS011;8235;52.198;9.904;2024-01-30T07:17:45;14.40;;;8.97;;
16254;SDS011;8235;52.198;9.904;2024-01-30T07:20:12;12.57;;;9.07;;
16254;SDS011;8235;52.198;9.904;2024-01-30T07:22:39;11.83;;;9.40;;
16254;SDS011;8235;52.198;9.904;2024-01-30T07:25:06;11.87;;;8.73;;
16254;SDS011;8235;52.198;9.904;2024-01-30T07:27:33;12.60;;;9.50;;
16254;SDS011;8235;52.198;9.904;2024-01-30T07:30:01;12.87;;;9.80;;
16254;SDS011;8235;52.198;9.904;2024-01-30T07:32:27;13.23;;;9.80;;
16254;SDS011;8235;52.198;9.904;2024-01-30T07:34:53;10.23;;;8.37;;
16254;SDS011;8235;52.198;9.904;2024-01-30T07:37:20;11.43;;;8.93;;
16254;SDS011;8235;52.198;9.904;2024-01-30T07:39:46;13.93;;;8.90;;
16254;SDS011;8235;52.198;9.904;2024-01-30T07:42:13;12.70;;;9.83;;
16254;SDS011;8235;52.198;9.904;2024-01-30T07:44:39;11.67;;;8.80;;
16254;SDS011;8235;52.198;9.904;2024-01-30T07:47:07;10.87;;;8.47;;
16254;SDS011;8235;52.198;9.904;2024-01-30T07:49:34;10.37;;;8.40;;
16254;SDS011;8235;52.198;9.904;2024-01-30T07:52:00;13.10;;;9.83;;
16254;SDS011;8235;52.198;9.904;2024-01-30T07:54:27;10.43;;;8.10;;
16254;SDS011;8235;52.198;9.904;2024-01-30T07:56:58;12.60;;;8.73;;
16254;SDS011;8235;52.198;9.904;2024-01-30T07:59:24;10.33;;;8.57;;
16254;SDS011;8235;52.198;9.904;2024-01-30T08:01:51;13.70;;;8.97;;
16254;SDS011;8235;52.198;9.904;2024-01-30T08:04:19;10.93;;;8.33;;
16254;SDS011;8235;52.198;9.904;2024-01-30T08:06:45;9.23;;;8.03;;
16254;SDS011;8235;52.198;9.904;2024-01-30T08:09:12;13.97;;;9.80;;
16254;SDS011;8235;52.198;9.904;2024-01-30T08:11:38;13.00;;;9.03;;
16254;SDS011;8235;52.198;9.904;2024-01-30T08:14:05;12.33;;;8.83;;
16254;SDS011;8235;52.198;9.904;2024-01-30T08:16:31;10.93;;;9.10;;
16254;SDS011;8235;52.198;9.904;2024-01-30T08:18:58;13.70;;;8.63;;
16254;SDS011;8235;52.198;9.904;2024-01-30T08:21:26;12.53;;;10.03;;
16254;SDS011;8235;52.198;9.904;2024-01-30T08:23:52;12.37;;;8.73;;
16254;SDS011;8235;52.198;9.904;2024-01-30T08:26:19;13.03;;;9.37;;
16254;SDS011;8235;52.198;9.904;2024-01-30T08:28:45;12.80;;;9.33;;
16254;SDS011;8235;52.198;9.904;2024-01-30T08:31:12;15.60;;;9.37;;
16254;SDS011;8235;52.198;9.904;2024-01-30T08:33:38;10.13;;;8.47;;
16254;SDS011;8235;52.198;9.904;2024-01-30T08:36:05;12.60;;;9.77;;
16254;SDS011;8235;52.198;9.904;2024-01-30T08:38:33;11.33;;;9.57;;
16254;SDS011;8235;52.198;9.904;2024-01-30T08:40:59;14.27;;;9.30;;
16254;SDS011;8235;52.198;9.904;2024-01-30T08:43:26;13.47;;;9.40;;
16254;SDS011;8235;52.198;9.904;2024-01-30T08:45:52;11.37;;;9.93;;
16254;SDS011;8235;52.198;9.904;2024-01-30T08:48:19;15.03;;;10.03;;
16254;SDS011;8235;52.198;9.904;2024-01-30T08:50:46;13.17;;;9.67;;
16254;SDS011;8235;52.198;9.904;2024-01-30T08:53:12;12.00;;;8.97;;
16254;SDS011;8235;52.198;9.904;2024-01-30T08:55:40;13.07;;;9.30;;
16254;SDS011;8235;52.198;9.904;2024-01-30T08:58:07;13.90;;;9.63;;
16254;SDS011;8235;52.198;9.904;2024-01-30T09:00:33;11.70;;;9.17;;
16254;SDS011;8235;52.198;9.904;2024-01-30T09:03:00;12.73;;;8.57;;
16254;SDS011;8235;52.198;9.904;2024-01-30T09:05:26;11.87;;;8.60;;
16254;SDS011;8235;52.198;9.904;2024-01-30T09:07:53;14.00;;;8.57;;
16254;SDS011;8235;52.198;9.904;2024-01-30T09:10:19;11.93;;;8.93;;
16254;SDS011;8235;52.198;9.904;2024-01-30T09:12:47;10.30;;;8.43;;
16254;SDS011;8235;52.198;9.904;2024-01-30T09:15:14;13.17;;;7.83;;
16254;SDS011;8235;52.198;9.904;2024-01-30T09:17:41;11.30;;;8.00;;
16254;SDS011;8235;52.198;9.904;2024-01-30T09:20:07;11.50;;;8.57;;
16254;SDS011;8235;52.198;9.904;2024-01-30T09:22:35;12.67;;;8.40;;
16254;SDS011;8235;52.198;9.904;2024-01-30T09:25:01;10.80;;;8.07;;
16254;SDS011;8235;52.198;9.904;2024-01-30T09:27:28;11.17;;;8.37;;
16254;SDS011;8235;52.198;9.904;2024-01-30T09:29:56;10.40;;;7.63;;
16254;SDS011;8235;52.198;9.904;2024-01-30T09:32:22;11.27;;;8.10;;
16254;SDS011;8235;52.198;9.904;2024-01-30T09:34:49;10.30;;;7.90;;
16254;SDS011;8235;52.198;9.904;2024-01-30T09:37:15;13.03;;;8.17;;
16254;SDS011;8235;52.198;9.904;2024-01-30T09:39:43;10.53;;;7.97;;
16254;SDS011;8235;52.198;9.904;2024-01-30T09:42:10;11.33;;;8.10;;
16254;SDS011;8235;52.198;9.904;2024-01-30T09:44:44;11.13;;;8.00;;
16254;SDS011;8235;52.198;9.904;2024-01-30T09:47:14;10.37;;;7.63;;
16254;SDS011;8235;52.198;9.904;2024-01-30T09:49:42;11.07;;;8.23;;
16254;SDS011;8235;52.198;9.904;2024-01-30T09:52:09;8.60;;;7.33;;
16254;SDS011;8235;52.198;9.904;2024-01-30T09:54:37;11.07;;;7.83;;
16254;SDS011;8235;52.198;9.904;2024-01-30T09:57:04;10.97;;;7.47;;
16254;SDS011;8235;52.198;9.904;2024-01-30T09:59:33;10.10;;;7.27;;
16254;SDS011;8235;52.198;9.904;2024-01-30T10:02:00;9.73;;;7.23;;
16254;SDS011;8235;52.198;9.904;2024-01-30T10:04:30;12.80;;;7.97;;
16254;SDS011;8235;52.198;9.904;2024-01-30T10:06:56;9.60;;;7.23;;
16254;SDS011;8235;52.198;9.904;2024-01-30T10:09:23;7.97;;;6.97;;
16254;SDS011;8235;52.198;9.904;2024-01-30T10:11:50;9.53;;;7.70;;
16254;SDS011;8235;52.198;9.904;2024-01-30T10:14:17;8.03;;;7.20;;
16254;SDS011;8235;52.198;9.904;2024-01-30T10:16:45;11.07;;;7.93;;
16254;SDS011;8235;52.198;9.904;2024-01-30T10:19:12;8.63;;;7.47;;
16254;SDS011;8235;52.198;9.904;2024-01-30T10:21:40;7.93;;;6.73;;
16254;SDS011;8235;52.198;9.904;2024-01-30T10:24:06;9.33;;;7.30;;
16254;SDS011;8235;52.198;9.904;2024-01-30T10:26:33;8.63;;;7.03;;
16254;SDS011;8235;52.198;9.904;2024-01-30T10:28:59;10.60;;;6.87;;
16254;SDS011;8235;52.198;9.904;2024-01-30T10:31:26;10.17;;;6.67;;
16254;SDS011;8235;52.198;9.904;2024-01-30T10:33:52;10.10;;;7.20;;
16254;SDS011;8235;52.198;9.904;2024-01-30T10:36:19;8.93;;;6.90;;
16254;SDS011;8235;52.198;9.904;2024-01-30T10:38:55;8.50;;;7.33;;
16254;SDS011;8235;52.198;9.904;2024-01-30T10:41:26;9.00;;;6.37;;
16254;SDS011;8235;52.198;9.904;2024-01-30T10:43:54;8.40;;;6.37;;
16254;SDS011;8235;52.198;9.904;2024-01-30T10:46:30;10.67;;;7.70;;
16254;SDS011;8235;52.198;9.904;2024-01-30T10:48:59;9.47;;;7.47;;
16254;SDS011;8235;52.198;9.904;2024-01-30T10:51:25;9.10;;;7.10;;
16254;SDS011;8235;52.198;9.904;2024-01-30T10:53:52;10.10;;;6.67;;
16254;SDS011;8235;52.198;9.904;2024-01-30T10:56:21;10.07;;;7.17;;
16254;SDS011;8235;52.198;9.904;2024-01-30T10:58:49;8.70;;;7.47;;
16254;SDS011;8235;52.198;9.904;2024-01-30T11:01:17;9.20;;;6.60;;
16254;SDS011;8235;52.198;9.904;2024-01-30T11:03:44;10.60;;;8.90;;
16254;SDS011;8235;52.198;9.904;2024-01-30T11:06:11;8.57;;;7.17;;
16254;SDS011;8235;52.198;9.904;2024-01-30T11:08:39;10.90;;;7.67;;
16254;SDS011;8235;52.198;9.904;2024-01-30T11:11:14;9.63;;;7.23;;
16254;SDS011;8235;52.198;9.904;2024-01-30T11:13:54;10.50;;;7.33;;
16254;SDS011;8235;52.198;9.904;2024-01-30T11:16:20;7.90;;;6.70;;
16254;SDS011;8235;52.198;9.904;2024-01-30T11:18:49;8.80;;;6.60;;
16254;SDS011;8235;52.198;9.904;2024-01-30T11:21:16;9.93;;;6.10;;
16254;SDS011;8235;52.198;9.904;2024-01-30T11:23:43;9.93;;;6.60;;
16254;SDS011;8235;52.198;9.904;2024-01-30T11:26:10;8.97;;;6.50;;
16254;SDS011;8235;52.198;9.904;2024-01-30T11:28:37;7.77;;;6.37;;
16254;SDS011;8235;52.198;9.904;2024-01-30T11:31:05;8.67;;;6.47;;
16254;SDS011;8235;52.198;9.904;2024-01-30T11:33:33;9.73;;;7.20;;
16254;SDS011;8235;52.198;9.904;2024-01-30T11:36:00;9.93;;;6.83;;
16254;SDS011;8235;52.198;9.904;2024-01-30T11:38:27;12.20;;;7.13;;
16254;SDS011;8235;52.198;9.904;2024-01-30T11:40:54;8.97;;;7.23;;
16254;SDS011;8235;52.198;9.904;2024-01-30T11:43:21;12.30;;;7.97;;
16254;SDS011;8235;52.198;9.904;2024-01-30T11:45:48;8.80;;;7.50;;
16254;SDS011;8235;52.198;9.904;2024-01-30T11:48:16;10.67;;;7.67;;
16254;SDS011;8235;52.198;9.904;2024-01-30T11:50:43;12.27;;;7.90;;
16254;SDS011;8235;52.198;9.904;2024-01-30T11:53:10;9.17;;;7.30;;
16254;SDS011;8235;52.198;9.904;2024-01-30T11:55:37;9.33;;;7.37;;
16254;SDS011;8235;52.198;9.904;2024-01-30T11:58:04;8.30;;;7.20;;
16254;SDS011;8235;52.198;9.904;2024-01-30T12:00:30;10.53;;;6.50;;
16254;SDS011;8235;52.198;9.904;2024-01-30T12:02:58;8.47;;;6.90;;
16254;SDS011;8235;52.198;9.904;2024-01-30T12:05:27;8.33;;;6.40;;
16254;SDS011;8235;52.198;9.904;2024-01-30T12:07:54;8.67;;;7.07;;
16254;SDS011;8235;52.198;9.904;2024-01-30T12:10:23;8.17;;;6.30;;
16254;SDS011;8235;52.198;9.904;2024-01-30T12:12:50;9.27;;;6.60;;
16254;SDS011;8235;52.198;9.904;2024-01-30T12:15:18;9.37;;;6.80;;
16254;SDS011;8235;52.198;9.904;2024-01-30T12:17:47;8.97;;;6.90;;
16254;SDS011;8235;52.198;9.904;2024-01-30T12:20:14;12.67;;;7.13;;
16254;SDS011;8235;52.198;9.904;2024-01-30T12:22:46;10.57;;;7.17;;
16254;SDS011;8235;52.198;9.904;2024-01-30T12:25:14;10.10;;;6.80;;
16254;SDS011;8235;52.198;9.904;2024-01-30T12:27:42;9.27;;;6.93;;
16254;SDS011;8235;52.198;9.904;2024-01-30T12:30:10;6.60;;;5.73;;
16254;SDS011;8235;52.198;9.904;2024-01-30T12:32:39;10.17;;;6.80;;
16254;SDS011;8235;52.198;9.904;2024-01-30T12:35:07;8.17;;;6.77;;
16254;SDS011;8235;52.198;9.904;2024-01-30T12:37:34;10.40;;;7.53;;
16254;SDS011;8235;52.198;9.904;2024-01-30T12:40:02;9.53;;;6.87;;
16254;SDS011;8235;52.198;9.904;2024-01-30T12:42:31;10.00;;;6.90;;
16254;SDS011;8235;52.198;9.904;2024-01-30T12:44:58;12.03;;;7.10;;
16254;SDS011;8235;52.198;9.904;2024-01-30T12:47:24;8.67;;;6.50;;
16254;SDS011;8235;52.198;9.904;2024-01-30T12:49:51;7.10;;;6.40;;
16254;SDS011;8235;52.198;9.904;2024-01-30T12:52:18;7.67;;;5.83;;
16254;SDS011;8235;52.198;9.904;2024-01-30T12:54:45;8.13;;;6.10;;
16254;SDS011;8235;52.198;9.904;2024-01-30T12:57:13;8.00;;;5.83;;
16254;SDS011;8235;52.198;9.904;2024-01-30T12:59:40;8.43;;;5.63;;
16254;SDS011;8235;52.198;9.904;2024-01-30T13:02:06;6.73;;;5.77;;
16254;SDS011;8235;52.198;9.904;2024-01-30T13:04:33;6.27;;;5.47;;
16254;SDS011;8235;52.198;9.904;2024-01-30T13:07:00;9.30;;;7.03;;
16254;SDS011;8235;52.198;9.904;2024-01-30T13:09:27;8.70;;;5.93;;
16254;SDS011;8235;52.198;9.904;2024-01-30T13:11:55;6.97;;;5.57;;
16254;SDS011;8235;52.198;9.904;2024-01-30T13:14:23;7.03;;;5.83;;
16254;SDS011;8235;52.198;9.904;2024-01-30T13:16:50;10.60;;;6.23;;
16254;SDS011;8235;52.198;9.904;2024-01-30T13:19:16;7.47;;;6.00;;
16254;SDS011;8235;52.198;9.904;2024-01-30T13:21:43;9.83;;;6.20;;
16254;SDS011;8235;52.198;9.904;2024-01-30T13:24:09;8.07;;;6.17;;
16254;SDS011;8235;52.198;9.904;2024-01-30T13:26:36;9.00;;;5.60;;
16254;SDS011;8235;52.198;9.904;2024-01-30T13:29:02;7.57;;;6.00;;
16254;SDS011;8235;52.198;9.904;2024-01-30T13:31:30;6.63;;;5.67;;
16254;SDS011;8235;52.198;9.904;2024-01-30T13:33:57;6.40;;;5.33;;
16254;SDS011;8235;52.198;9.904;2024-01-30T13:36:23;5.93;;;4.77;;
16254;SDS011;8235;52.198;9.904;2024-01-30T13:38:50;6.67;;;5.40;;
16254;SDS011;8235;52.198;9.904;2024-01-30T13:41:17;6.83;;;5.50;;
16254;SDS011;8235;52.198;9.904;2024-01-30T13:43:43;8.63;;;6.50;;
16254;SDS011;8235;52.198;9.904;2024-01-30T13:46:10;8.07;;;6.10;;
16254;SDS011;8235;52.198;9.904;2024-01-30T13:48:38;8.43;;;6.50;;
16254;SDS011;8235;52.198;9.904;2024-01-30T13:51:05;8.07;;;5.37;;
16254;SDS011;8235;52.198;9.904;2024-01-30T13:53:31;7.30;;;5.93;;
16254;SDS011;8235;52.198;9.904;2024-01-30T13:55:58;8.03;;;6.10;;
16254;SDS011;8235;52.198;9.904;2024-01-30T13:58:24;7.20;;;5.87;;
16254;SDS011;8235;52.198;9.904;2024-01-30T14:00:51;6.53;;;5.80;;
16254;SDS011;8235;52.198;9.904;2024-01-30T14:03:17;7.67;;;6.00;;
16254;SDS011;8235;52.198;9.904;2024-01-30T14:05:45;7.47;;;5.80;;
16254;SDS011;8235;52.198;9.904;2024-01-30T14:08:11;7.90;;;6.13;;
16254;SDS011;8235;52.198;9.904;2024-01-30T14:10:38;7.57;;;5.97;;
16254;SDS011;8235;52.198;9.904;2024-01-30T14:13:04;8.57;;;6.53;;
16254;SDS011;8235;52.198;9.904;2024-01-30T14:15:31;8.20;;;6.23;;
16254;SDS011;8235;52.198;9.904;2024-01-30T14:17:57;10.67;;;6.63;;
16254;SDS011;8235;52.198;9.904;2024-01-30T14:20:24;9.60;;;6.60;;
16254;SDS011;8235;52.198;9.904;2024-01-30T14:22:52;13.63;;;9.73;;
16254;SDS011;8235;52.198;9.904;2024-01-30T14:25:20;7.43;;;6.73;;
16254;SDS011;8235;52.198;9.904;2024-01-30T14:27:47;8.60;;;5.90;;
16254;SDS011;8235;52.198;9.904;2024-01-30T14:30:13;8.00;;;5.60;;
16254;SDS011;8235;52.198;9.904;2024-01-30T14:32:39;7.50;;;5.77;;
16254;SDS011;8235;52.198;9.904;2024-01-30T14:35:07;8.27;;;6.60;;
16254;SDS011;8235;52.198;9.904;2024-01-30T14:37:35;7.00;;;6.30;;
16254;SDS011;8235;52.198;9.904;2024-01-30T14:40:03;8.30;;;6.50;;
16254;SDS011;8235;52.198;9.904;2024-01-30T14:42:32;8.87;;;6.20;;
16254;SDS011;8235;52.198;9.904;2024-01-30T14:44:58;10.00;;;6.27;;
16254;SDS011;8235;52.198;9.904;2024-01-30T14:47:25;6.70;;;6.00;;
16254;SDS011;8235;52.198;9.904;2024-01-30T14:49:52;10.20;;;6.40;;